Lyndeborough, New Hampshire
Current Conditions -  °F | °C
As of 6:52 AM on Saturday 20 Dec 2014 (Local Time) from KAFN Reporting Station
Clear Clear  
Wind Chill: 16°   Ceiling: Unl
Heat Index: 16°   Visibility: 10mi
Dew Point: 13°   Wind: 0mph
Humidity: 88%   Direction: NA
Pressure: 30.22"   Gusts: NA
Location:  42.91°N, 71.77°W
Report Text: KAFN 201152Z AUTO 00000KT 10SM CLR M09/M11 A3022 RMK AO2 SLP258 I1000 I6000 T10891106 11067 21089 53024
Loading
Personal Weather Stations






























Interactive Weather Map New forecast layout! Learn more

10-Day Weather Forecast

Advertisements
Track Severe Weather on mobile